createdAt,value
2018-07-04T00:00:35.049Z,1010.31
2018-07-04T00:01:16.173Z,1010.34
2018-07-04T00:01:58.357Z,1010.36
2018-07-04T00:02:40.199Z,1010.35
2018-07-04T00:03:21.171Z,1010.38
2018-07-04T00:04:02.326Z,1010.36
2018-07-04T00:04:43.372Z,1010.39
2018-07-04T00:05:24.454Z,1010.35
2018-07-04T00:06:06.890Z,1010.36
2018-07-04T00:06:48.801Z,1010.36
2018-07-04T00:07:29.940Z,1010.3
2018-07-04T00:08:10.969Z,1010.39
2018-07-04T00:08:52.053Z,1010.34
2018-07-04T00:09:33.205Z,1010.34
2018-07-04T00:10:14.515Z,1010.34
2018-07-04T00:10:55.629Z,1010.36
2018-07-04T00:11:36.518Z,1010.36
2018-07-04T00:12:17.486Z,1010.33
2018-07-04T00:12:58.481Z,1010.36
2018-07-04T00:13:40.329Z,1010.38
2018-07-04T00:14:23.324Z,1010.32
2018-07-04T00:15:04.552Z,1010.33
2018-07-04T00:15:45.731Z,1010.33
2018-07-04T00:16:26.638Z,1010.35
2018-07-04T00:17:07.854Z,1010.35
2018-07-04T00:17:49.692Z,1010.35
2018-07-04T00:18:30.702Z,1010.37
2018-07-04T00:19:11.245Z,1010.38
2018-07-04T00:19:51.827Z,1010.36
2018-07-04T00:20:32.660Z,1010.34
2018-07-04T00:21:13.789Z,1010.34
2018-07-04T00:21:55.058Z,1010.36
2018-07-04T00:22:36.249Z,1010.36
2018-07-04T00:23:18.378Z,1010.35
2018-07-04T00:23:59.351Z,1010.3
2018-07-04T00:24:41.016Z,1010.36
2018-07-04T00:25:23.151Z,1010.31
2018-07-04T00:26:04.299Z,1010.32
2018-07-04T00:26:47.390Z,1010.31
2018-07-04T00:27:28.512Z,1010.33
2018-07-04T00:28:09.688Z,1010.32
2018-07-04T00:28:50.878Z,1010.34
2018-07-04T00:29:31.976Z,1010.33
2018-07-04T00:30:13.078Z,1010.34
2018-07-04T00:30:55.196Z,1010.3
2018-07-04T00:31:36.790Z,1010.35
2018-07-04T00:32:18.406Z,1010.33
2018-07-04T00:33:01.083Z,1010.31
2018-07-04T00:33:42.161Z,1010.33
2018-07-04T00:34:23.382Z,1010.3
2018-07-04T00:35:04.669Z,1010.33
2018-07-04T00:35:46.357Z,1010.32
2018-07-04T00:36:27.549Z,1010.34
2018-07-04T00:37:08.760Z,1010.32
2018-07-04T00:37:49.955Z,1010.31
2018-07-04T00:38:31.180Z,1010.35
2018-07-04T00:39:12.289Z,1010.32
2018-07-04T00:39:53.330Z,1010.35
2018-07-04T00:40:34.400Z,1010.37
2018-07-04T00:41:15.559Z,1010.35
2018-07-04T00:41:56.536Z,1010.36
2018-07-04T00:42:37.695Z,1010.32
2018-07-04T00:43:18.550Z,1010.35
2018-07-04T00:44:00.315Z,1010.38
2018-07-04T00:44:41.505Z,1010.35
2018-07-04T00:45:23.419Z,1010.37
2018-07-04T00:46:04.449Z,1010.37
2018-07-04T00:46:46.562Z,1010.37
2018-07-04T00:47:28.678Z,1010.38
2018-07-04T00:48:09.943Z,1010.4
2018-07-04T00:48:51.240Z,1010.39
2018-07-04T00:49:32.466Z,1010.37
2018-07-04T00:50:13.670Z,1010.39
2018-07-04T00:50:54.772Z,1010.36
2018-07-04T00:51:36.872Z,1010.35
2018-07-04T00:52:18.104Z,1010.37
2018-07-04T00:52:59.249Z,1010.36
2018-07-04T00:53:40.426Z,1010.33
2018-07-04T00:54:21.494Z,1010.35
2018-07-04T00:55:02.618Z,1010.39
2018-07-04T00:55:44.297Z,1010.34
2018-07-04T00:56:26.094Z,1010.33
2018-07-04T00:57:07.165Z,1010.36
2018-07-04T00:57:49.044Z,1010.33
2018-07-04T00:58:30.262Z,1010.32
2018-07-04T00:59:11.308Z,1010.31
2018-07-04T00:59:52.518Z,1010.3
2018-07-04T01:00:34.019Z,1010.28
2018-07-04T01:01:15.076Z,1010.28
2018-07-04T01:01:56.018Z,1010.31
2018-07-04T01:02:37.016Z,1010.31
2018-07-04T01:03:18.072Z,1010.26
2018-07-04T01:03:59.220Z,1010.3
2018-07-04T01:04:41.308Z,1010.28
2018-07-04T01:05:22.348Z,1010.27
2018-07-04T01:06:03.482Z,1010.26
2018-07-04T01:06:44.592Z,1010.3
2018-07-04T01:07:26.620Z,1010.24
2018-07-04T01:08:07.834Z,1010.28
2018-07-04T01:08:51.653Z,1010.29
2018-07-04T01:09:32.488Z,1010.3
2018-07-04T01:10:13.335Z,1010.29
2018-07-04T01:10:54.248Z,1010.25
2018-07-04T01:11:35.322Z,1010.25
2018-07-04T01:12:16.525Z,1010.24
2018-07-04T01:12:57.482Z,1010.27
2018-07-04T01:13:38.594Z,1010.27
2018-07-04T01:14:19.639Z,1010.23
2018-07-04T01:15:00.819Z,1010.23
2018-07-04T01:15:41.900Z,1010.26
2018-07-04T01:16:23.040Z,1010.17
2018-07-04T01:17:04.204Z,1010.28
2018-07-04T01:17:45.431Z,1010.23
2018-07-04T01:18:27.904Z,1010.23
2018-07-04T01:19:09.624Z,1010.23
2018-07-04T01:19:50.804Z,1010.23
2018-07-04T01:20:31.906Z,1010.17
2018-07-04T01:21:12.994Z,1010.19
2018-07-04T01:21:54.531Z,1010.21
2018-07-04T01:22:36.404Z,1010.22
2018-07-04T01:23:18.417Z,1010.19
2018-07-04T01:24:00.477Z,1010.2
2018-07-04T01:24:41.659Z,1010.2
2018-07-04T01:25:22.867Z,1010.23
2018-07-04T01:26:04.047Z,1010.23
2018-07-04T01:26:45.140Z,1010.19
2018-07-04T01:27:26.310Z,1010.22
2018-07-04T01:28:07.482Z,1010.19
2018-07-04T01:28:48.651Z,1010.18
2018-07-04T01:29:29.871Z,1010.19
2018-07-04T01:30:11.066Z,1010.2
2018-07-04T01:30:52.212Z,1010.2
2018-07-04T01:31:34.693Z,1010.17
2018-07-04T01:32:15.889Z,1010.12
2018-07-04T01:32:57.011Z,1010.17
2018-07-04T01:33:38.155Z,1010.18
2018-07-04T01:34:19.275Z,1010.2
2018-07-04T01:35:01.459Z,1010.2
2018-07-04T01:35:42.645Z,1010.19
2018-07-04T01:36:23.888Z,1010.22
2018-07-04T01:37:05.098Z,1010.16
2018-07-04T01:37:46.314Z,1010.12
2018-07-04T01:38:27.572Z,1010.17
2018-07-04T01:39:08.778Z,1010.15
2018-07-04T01:39:50.078Z,1010.15
2018-07-04T01:40:31.260Z,1010.13
2018-07-04T01:41:12.407Z,1010.17
2018-07-04T01:41:54.943Z,1010.11
2018-07-04T01:42:36.145Z,1010.13
2018-07-04T01:43:17.289Z,1010.13
2018-07-04T01:43:58.522Z,1010.16
2018-07-04T01:44:39.609Z,1010.14
2018-07-04T01:45:20.866Z,1010.15
2018-07-04T01:46:01.967Z,1010.09
2018-07-04T01:46:43.023Z,1010.13
2018-07-04T01:47:24.165Z,1010.14
2018-07-04T01:48:05.944Z,1010.12
2018-07-04T01:48:47.126Z,1010.12
2018-07-04T01:49:28.248Z,1010.1
2018-07-04T01:50:09.378Z,1010.13
2018-07-04T01:50:51.402Z,1010.11
2018-07-04T01:51:32.655Z,1010.08
2018-07-04T01:52:13.777Z,1010.11
2018-07-04T01:52:54.762Z,1010.1
2018-07-04T01:53:35.959Z,1010.09
2018-07-04T01:54:17.125Z,1010.07
2018-07-04T01:54:58.274Z,1010.08
2018-07-04T01:55:40.355Z,1010.05
2018-07-04T01:56:22.264Z,1010.04
2018-07-04T01:57:03.509Z,1010.05
2018-07-04T01:57:44.878Z,1010.06
2018-07-04T01:58:26.052Z,1010.02
2018-07-04T01:59:07.236Z,1010.06
2018-07-04T01:59:48.399Z,1010.05
2018-07-04T02:00:29.642Z,1010
2018-07-04T02:01:10.867Z,1009.99
2018-07-04T02:01:52.892Z,1010.02
2018-07-04T02:02:34.929Z,1010
2018-07-04T02:03:16.064Z,1010.01
2018-07-04T02:03:57.120Z,1010
2018-07-04T02:04:38.348Z,1009.96
2018-07-04T02:05:19.524Z,1010
2018-07-04T02:06:00.721Z,1010.01
2018-07-04T02:06:41.919Z,1009.99
2018-07-04T02:07:23.840Z,1009.97
2018-07-04T02:08:05.047Z,1009.98
2018-07-04T02:08:46.281Z,1009.99
2018-07-04T02:09:27.518Z,1009.96
2018-07-04T02:10:08.795Z,1010.02
2018-07-04T02:10:51.649Z,1009.97
2018-07-04T02:11:33.385Z,1010
2018-07-04T02:12:14.418Z,1010.01
2018-07-04T02:12:56.438Z,1009.98
2018-07-04T02:13:39.903Z,1010.03
2018-07-04T02:14:21.033Z,1010
2018-07-04T02:15:02.190Z,1010.03
2018-07-04T02:15:43.395Z,1010.01
2018-07-04T02:16:24.569Z,1010.02
2018-07-04T02:17:05.787Z,1010.02
2018-07-04T02:17:47.665Z,1010.02
2018-07-04T02:18:28.794Z,1010.01
2018-07-04T02:19:09.922Z,1010.01
2018-07-04T02:19:51.159Z,1009.98
2018-07-04T02:20:33.185Z,1009.99
2018-07-04T02:21:14.801Z,1010.03
2018-07-04T02:21:56.700Z,1010.02
2018-07-04T02:22:37.913Z,1010.03
2018-07-04T02:23:19.128Z,1010.02
2018-07-04T02:24:00.114Z,1010.01
2018-07-04T02:24:41.314Z,1010.02
2018-07-04T02:25:22.705Z,1009.97
2018-07-04T02:26:04.019Z,1010.04
2018-07-04T02:26:48.379Z,1010.03
2018-07-04T02:27:29.584Z,1010.03
2018-07-04T02:28:10.713Z,1010.06
2018-07-04T02:28:51.784Z,1010.09
2018-07-04T02:29:33.655Z,1010.03
2018-07-04T02:30:16.174Z,1010.06
2018-07-04T02:30:57.898Z,1010.05
2018-07-04T02:31:38.958Z,1010.05
2018-07-04T02:32:19.993Z,1010.08
2018-07-04T02:33:01.192Z,1010.06
2018-07-04T02:33:42.438Z,1010.07
2018-07-04T02:34:23.676Z,1010.03
2018-07-04T02:35:04.820Z,1010.04
2018-07-04T02:35:45.949Z,1010.04
2018-07-04T02:36:27.096Z,1010.04
2018-07-04T02:37:08.153Z,1010.04
2018-07-04T02:37:49.257Z,1010.03
2018-07-04T02:38:31.387Z,1010.03
2018-07-04T02:39:13.409Z,1010.01
2018-07-04T02:39:54.518Z,1010.05
2018-07-04T02:40:35.672Z,1010
2018-07-04T02:41:16.797Z,1010.05
2018-07-04T02:41:57.859Z,1010.05
2018-07-04T02:42:39.996Z,1010.06
2018-07-04T02:43:21.199Z,1010.04
2018-07-04T02:44:03.183Z,1010.05
2018-07-04T02:44:44.325Z,1010.01
2018-07-04T02:45:25.475Z,1010.03
2018-07-04T02:46:06.469Z,1010.03
2018-07-04T02:46:47.539Z,1009.99
2018-07-04T02:47:29.446Z,1009.98
2018-07-04T02:48:10.616Z,1009.98
2018-07-04T02:48:52.282Z,1010
2018-07-04T02:49:34.211Z,1010
2018-07-04T02:50:15.942Z,1009.98
2018-07-04T02:50:57.116Z,1010.01
2018-07-04T02:51:38.929Z,1010.01
2018-07-04T02:52:20.101Z,1009.99
2018-07-04T02:53:01.330Z,1010.01
2018-07-04T02:53:42.443Z,1010.04
2018-07-04T02:54:23.488Z,1010
2018-07-04T02:55:05.164Z,1010.04
2018-07-04T02:55:46.198Z,1010.01
2018-07-04T02:56:27.868Z,1010.02
2018-07-04T02:57:08.970Z,1010.04
2018-07-04T02:57:52.184Z,1010.01
2018-07-04T02:58:33.472Z,1010.01
2018-07-04T02:59:14.364Z,1010.02
2018-07-04T02:59:55.529Z,1010.03
2018-07-04T03:00:36.580Z,1009.99
2018-07-04T03:01:17.905Z,1010.02
2018-07-04T03:01:59.052Z,1010
2018-07-04T03:02:40.153Z,1010.05
2018-07-04T03:03:21.299Z,1010
2018-07-04T03:04:02.469Z,1010.01
2018-07-04T03:04:43.567Z,1009.96
2018-07-04T03:05:24.590Z,1010
2018-07-04T03:06:05.659Z,1009.97
2018-07-04T03:06:46.702Z,1009.97
2018-07-04T03:07:27.944Z,1009.99
2018-07-04T03:08:09.116Z,1009.99
2018-07-04T03:08:50.295Z,1010.02
2018-07-04T03:09:31.452Z,1009.96
2018-07-04T03:10:12.642Z,1009.99
2018-07-04T03:10:53.756Z,1009.97
2018-07-04T03:11:34.818Z,1010
2018-07-04T03:12:15.932Z,1010.01
2018-07-04T03:12:57.100Z,1010.02
2018-07-04T03:13:39.231Z,1010
2018-07-04T03:14:20.313Z,1010
2018-07-04T03:15:01.406Z,1009.99
2018-07-04T03:15:42.427Z,1009.95
2018-07-04T03:16:23.602Z,1010.02
2018-07-04T03:17:04.748Z,1009.96
2018-07-04T03:17:45.930Z,1009.99
2018-07-04T03:18:27.150Z,1009.99
2018-07-04T03:19:08.205Z,1009.99
2018-07-04T03:19:49.918Z,1010
2018-07-04T03:20:32.036Z,1009.98
2018-07-04T03:21:13.161Z,1010.01
2018-07-04T03:21:54.277Z,1009.99
2018-07-04T03:22:35.438Z,1010.02
2018-07-04T03:23:16.603Z,1009.99
2018-07-04T03:23:57.818Z,1009.99
2018-07-04T03:24:39.072Z,1010.01
2018-07-04T03:25:20.250Z,1010
2018-07-04T03:26:01.468Z,1010.04
2018-07-04T03:26:42.671Z,1010
2018-07-04T03:27:23.764Z,1010.03
2018-07-04T03:28:04.913Z,1010
2018-07-04T03:28:46.620Z,1009.99
2018-07-04T03:29:27.797Z,1009.98
2018-07-04T03:30:09.733Z,1009.97
2018-07-04T03:30:51.015Z,1009.98
2018-07-04T03:31:32.201Z,1009.98
2018-07-04T03:32:13.446Z,1009.97
2018-07-04T03:32:54.527Z,1009.96
2018-07-04T03:33:35.651Z,1009.96
2018-07-04T03:34:16.747Z,1009.95
2018-07-04T03:34:58.671Z,1009.93
2018-07-04T03:35:40.469Z,1009.93
2018-07-04T03:36:21.614Z,1009.96
2018-07-04T03:37:02.821Z,1009.97
2018-07-04T03:37:43.967Z,1009.98
2018-07-04T03:38:25.077Z,1009.96
2018-07-04T03:39:06.291Z,1009.93
2018-07-04T03:39:47.579Z,1009.9
2018-07-04T03:40:28.658Z,1009.93
2018-07-04T03:41:09.780Z,1009.96
2018-07-04T03:41:50.821Z,1009.94
2018-07-04T03:42:32.018Z,1009.94
2018-07-04T03:43:13.209Z,1009.97
2018-07-04T03:43:54.303Z,1009.95
2018-07-04T03:44:35.464Z,1009.92
2018-07-04T03:45:16.327Z,1009.92
2018-07-04T03:45:57.266Z,1009.92
2018-07-04T03:46:38.308Z,1009.95
2018-07-04T03:47:19.495Z,1009.92
2018-07-04T03:48:00.724Z,1009.9
2018-07-04T03:48:41.846Z,1009.87
2018-07-04T03:49:22.958Z,1009.9
2018-07-04T03:50:04.090Z,1009.93
2018-07-04T03:50:45.727Z,1009.91
2018-07-04T03:51:27.440Z,1009.93
2018-07-04T03:52:08.551Z,1009.9
2018-07-04T03:52:49.680Z,1009.92
2018-07-04T03:53:30.735Z,1009.93
2018-07-04T03:54:11.757Z,1009.91
2018-07-04T03:54:52.316Z,1009.89
2018-07-04T03:55:32.880Z,1009.9
2018-07-04T03:56:13.444Z,1009.9
2018-07-04T03:56:54.012Z,1009.88
2018-07-04T03:57:34.592Z,1009.85
2018-07-04T03:58:15.172Z,1009.85
2018-07-04T03:58:55.737Z,1009.87
2018-07-04T03:59:36.303Z,1009.83
2018-07-04T04:00:16.862Z,1009.86
2018-07-04T04:00:57.435Z,1009.86
2018-07-04T04:01:38.026Z,1009.87
2018-07-04T04:02:18.583Z,1009.89
2018-07-04T04:02:59.170Z,1009.84
2018-07-04T04:03:39.753Z,1009.85
2018-07-04T04:04:20.328Z,1009.84
2018-07-04T04:05:00.924Z,1009.89
2018-07-04T04:05:41.491Z,1009.91
2018-07-04T04:06:22.060Z,1009.85
2018-07-04T04:07:02.671Z,1009.85
2018-07-04T04:07:43.232Z,1009.89
2018-07-04T04:08:23.801Z,1009.91
2018-07-04T04:09:04.393Z,1009.92
2018-07-04T04:09:44.997Z,1009.95
2018-07-04T04:10:25.577Z,1009.95
2018-07-04T04:11:06.148Z,1009.97
2018-07-04T04:11:46.710Z,1009.96
2018-07-04T04:12:27.287Z,1009.94
2018-07-04T04:13:07.843Z,1009.96
2018-07-04T04:13:48.410Z,1009.94
2018-07-04T04:14:28.980Z,1009.94
2018-07-04T04:15:09.552Z,1009.93
2018-07-04T04:15:50.104Z,1009.98
2018-07-04T04:16:30.669Z,1009.94
2018-07-04T04:17:11.254Z,1009.93
2018-07-04T04:17:51.825Z,1009.92
2018-07-04T04:18:32.446Z,1009.98
2018-07-04T04:19:13.007Z,1009.98
2018-07-04T04:19:53.652Z,1009.96
2018-07-04T04:20:34.136Z,1009.95
2018-07-04T04:21:14.704Z,1009.99
2018-07-04T04:21:55.275Z,1009.96
2018-07-04T04:22:35.839Z,1009.98
2018-07-04T04:23:16.407Z,1010.01
2018-07-04T04:23:56.964Z,1009.99
2018-07-04T04:24:37.778Z,1010
2018-07-04T04:25:18.877Z,1009.99
2018-07-04T04:25:59.650Z,1010
2018-07-04T04:26:40.222Z,1010.02
2018-07-04T04:27:20.793Z,1009.95
2018-07-04T04:28:01.356Z,1010.05
2018-07-04T04:28:41.933Z,1010.01
2018-07-04T04:29:22.507Z,1009.99
2018-07-04T04:30:03.064Z,1010.03
2018-07-04T04:30:43.648Z,1010.06
2018-07-04T04:31:24.211Z,1010.07
2018-07-04T04:32:04.761Z,1010.03
2018-07-04T04:32:45.347Z,1010.06
2018-07-04T04:33:25.901Z,1010.06
2018-07-04T04:34:06.451Z,1010.06
2018-07-04T04:34:46.999Z,1010.04
2018-07-04T04:35:27.555Z,1010.02
2018-07-04T04:36:08.121Z,1010.02
2018-07-04T04:36:48.690Z,1010.02
2018-07-04T04:37:29.251Z,1010.01
2018-07-04T04:38:09.804Z,1010
2018-07-04T04:38:50.367Z,1010
2018-07-04T04:39:30.947Z,1010
2018-07-04T04:40:11.500Z,1010.02
2018-07-04T04:40:52.063Z,1010
2018-07-04T04:41:32.621Z,1010.01
2018-07-04T04:42:13.202Z,1009.98
2018-07-04T04:42:53.766Z,1009.99
2018-07-04T04:43:34.351Z,1010
2018-07-04T04:44:14.920Z,1010.03
2018-07-04T04:44:55.501Z,1009.99
2018-07-04T04:45:36.057Z,1009.97
2018-07-04T04:46:16.620Z,1010.01
2018-07-04T04:46:57.187Z,1009.99
2018-07-04T04:47:37.814Z,1009.98
2018-07-04T04:48:18.403Z,1010.02
2018-07-04T04:48:59.621Z,1010.03
2018-07-04T04:49:40.238Z,1009.97
2018-07-04T04:50:20.798Z,1009.99
2018-07-04T04:51:01.363Z,1009.95
2018-07-04T04:51:41.915Z,1009.96
2018-07-04T04:52:22.470Z,1009.93
2018-07-04T04:53:03.029Z,1009.96
2018-07-04T04:53:43.598Z,1009.96
2018-07-04T04:54:24.245Z,1009.95
2018-07-04T04:55:04.783Z,1009.97
2018-07-04T04:55:45.347Z,1009.97
2018-07-04T04:56:25.908Z,1009.97
2018-07-04T04:57:07.219Z,1009.99
2018-07-04T04:57:47.788Z,1010
2018-07-04T04:58:28.371Z,1010.03
2018-07-04T04:59:08.963Z,1010.04
2018-07-04T04:59:49.534Z,1010.03
2018-07-04T05:00:30.139Z,1010.06
2018-07-04T05:01:10.704Z,1010.07
2018-07-04T05:01:51.278Z,1010.08
2018-07-04T05:02:31.839Z,1010.09
2018-07-04T05:03:12.426Z,1010.08
2018-07-04T05:03:52.988Z,1010.08
2018-07-04T05:04:33.617Z,1010.08
2018-07-04T05:05:14.181Z,1010.08
2018-07-04T05:05:54.742Z,1010.11
2018-07-04T05:06:35.308Z,1010.11
2018-07-04T05:07:15.872Z,1010.1
2018-07-04T05:07:56.455Z,1010.1
2018-07-04T05:08:37.002Z,1010.12
2018-07-04T05:09:17.579Z,1010.16
2018-07-04T05:09:58.139Z,1010.18
2018-07-04T05:10:38.701Z,1010.19
2018-07-04T05:11:19.309Z,1010.14
2018-07-04T05:11:59.883Z,1010.15
2018-07-04T05:12:40.473Z,1010.14
2018-07-04T05:13:20.993Z,1010.13
2018-07-04T05:14:01.555Z,1010.16
2018-07-04T05:14:42.101Z,1010.12
2018-07-04T05:15:22.698Z,1010.1
2018-07-04T05:16:03.250Z,1010.12
2018-07-04T05:16:43.814Z,1010.13
2018-07-04T05:17:24.403Z,1010.13
2018-07-04T05:18:04.977Z,1010.11
2018-07-04T05:18:45.510Z,1010.09
2018-07-04T05:19:26.088Z,1010.03
2018-07-04T05:20:06.652Z,1010.01
2018-07-04T05:20:47.218Z,1010.03
2018-07-04T05:21:27.790Z,1010.02
2018-07-04T05:22:08.466Z,1009.97
2018-07-04T05:22:49.038Z,1010
2018-07-04T05:23:29.618Z,1010.01
2018-07-04T05:24:10.187Z,1010.02
2018-07-04T05:24:50.749Z,1010.02
2018-07-04T05:25:31.358Z,1010.04
2018-07-04T05:26:11.952Z,1010.06
2018-07-04T05:26:52.530Z,1010.07
2018-07-04T05:27:33.143Z,1010.08
2018-07-04T05:28:13.733Z,1010.09
2018-07-04T05:28:54.280Z,1010.12
2018-07-04T05:29:34.856Z,1010.18
2018-07-04T05:30:15.433Z,1010.18
2018-07-04T05:30:55.996Z,1010.24
2018-07-04T05:31:36.651Z,1010.3
2018-07-04T05:32:17.216Z,1010.34
2018-07-04T05:32:57.778Z,1010.33
2018-07-04T05:33:38.349Z,1010.25
2018-07-04T05:34:18.904Z,1010.28
2018-07-04T05:34:59.507Z,1010.33
2018-07-04T05:35:40.042Z,1010.37
2018-07-04T05:36:20.891Z,1010.42
2018-07-04T05:37:01.531Z,1010.47
2018-07-04T05:37:42.152Z,1010.51
2018-07-04T05:38:22.722Z,1010.5
2018-07-04T05:39:03.306Z,1010.62
2018-07-04T05:39:43.887Z,1010.62
2018-07-04T05:40:24.591Z,1010.63
2018-07-04T05:41:05.173Z,1010.69
2018-07-04T05:41:45.737Z,1010.74
2018-07-04T05:42:26.297Z,1010.79
2018-07-04T05:43:06.861Z,1010.85
2018-07-04T05:43:47.440Z,1010.86
2018-07-04T05:44:28.092Z,1010.92
2018-07-04T05:45:08.611Z,1011
2018-07-04T05:45:49.174Z,1011.05
2018-07-04T05:46:30.464Z,1011.15
2018-07-04T05:47:11.141Z,1011.19
2018-07-04T05:47:51.716Z,1011.3
2018-07-04T05:48:32.250Z,1011.32
2018-07-04T05:49:12.910Z,1011.39
2018-07-04T05:49:54.314Z,1011.45
2018-07-04T05:50:34.823Z,1011.55
2018-07-04T05:51:15.398Z,1011.64
2018-07-04T05:51:56.048Z,1011.71
2018-07-04T05:52:36.663Z,1011.76
2018-07-04T05:53:17.213Z,1011.83
2018-07-04T05:53:58.013Z,1011.8
2018-07-04T05:54:38.675Z,1011.76
2018-07-04T05:55:19.250Z,1011.8
2018-07-04T05:55:59.926Z,1011.89
2018-07-04T05:56:40.574Z,1012.08
2018-07-04T05:57:21.150Z,1012.14
2018-07-04T05:58:01.711Z,1012.14
2018-07-04T05:58:42.286Z,1012.12
2018-07-04T05:59:22.858Z,1012.1
2018-07-04T06:00:03.655Z,1012.18
2018-07-04T06:00:44.234Z,1012.26
2018-07-04T06:01:24.794Z,1012.22
2018-07-04T06:02:05.445Z,1012.03
2018-07-04T06:02:46.076Z,1011.86
2018-07-04T06:03:26.728Z,1011.83
2018-07-04T06:04:07.305Z,1011.75
2018-07-04T06:04:47.932Z,1011.7
2018-07-04T06:05:28.511Z,1011.75
2018-07-04T06:06:09.142Z,1011.79
2018-07-04T06:06:49.714Z,1011.74
2018-07-04T06:07:30.456Z,1011.7
2018-07-04T06:08:11.130Z,1011.62
2018-07-04T06:08:51.763Z,1011.65
2018-07-04T06:09:32.331Z,1011.59
2018-07-04T06:10:12.991Z,1011.53
2018-07-04T06:10:53.562Z,1011.46
2018-07-04T06:11:34.307Z,1011.37
2018-07-04T06:12:14.887Z,1011.38
2018-07-04T06:12:55.776Z,1011.34
2018-07-04T06:13:36.392Z,1011.33
2018-07-04T06:14:16.995Z,1011.38
2018-07-04T06:14:57.592Z,1011.45
2018-07-04T06:15:38.140Z,1011.53
2018-07-04T06:16:18.732Z,1011.71
2018-07-04T06:16:59.316Z,1011.71
2018-07-04T06:17:39.919Z,1011.6
2018-07-04T06:18:20.535Z,1011.6
2018-07-04T06:19:01.087Z,1011.66
2018-07-04T06:19:41.650Z,1011.68
2018-07-04T06:20:22.227Z,1011.69
2018-07-04T06:21:02.830Z,1011.52
2018-07-04T06:21:43.403Z,1011.45
2018-07-04T06:22:23.999Z,1011.38
2018-07-04T06:23:04.679Z,1011.46
2018-07-04T06:23:45.299Z,1011.44
2018-07-04T06:24:25.886Z,1011.57
2018-07-04T06:25:06.483Z,1011.65
2018-07-04T06:25:47.063Z,1011.65
2018-07-04T06:26:27.636Z,1011.62
2018-07-04T06:27:08.220Z,1011.68
2018-07-04T06:27:48.986Z,1011.64
2018-07-04T06:28:29.561Z,1011.64
2018-07-04T06:29:10.135Z,1011.78
2018-07-04T06:29:50.705Z,1012.01
2018-07-04T06:30:31.283Z,1012.11
2018-07-04T06:31:11.866Z,1012.07
2018-07-04T06:31:52.440Z,1011.97
2018-07-04T06:32:33.023Z,1011.91
2018-07-04T06:33:13.605Z,1011.91
2018-07-04T06:33:54.196Z,1011.88
2018-07-04T06:34:34.774Z,1011.9
2018-07-04T06:35:15.346Z,1011.81
2018-07-04T06:35:55.925Z,1011.84
2018-07-04T06:36:36.502Z,1011.86
2018-07-04T06:37:17.230Z,1011.77
2018-07-04T06:37:57.805Z,1011.66
2018-07-04T06:38:38.381Z,1011.71
2018-07-04T06:39:18.963Z,1011.81
2018-07-04T06:39:59.547Z,1011.82
2018-07-04T06:40:40.247Z,1011.79
2018-07-04T06:41:20.826Z,1011.85
2018-07-04T06:42:01.472Z,1011.79
2018-07-04T06:42:42.054Z,1011.72
2018-07-04T06:43:22.642Z,1011.68
2018-07-04T06:44:03.214Z,1011.62
2018-07-04T06:44:43.774Z,1011.61
2018-07-04T06:45:24.645Z,1011.42
2018-07-04T06:46:05.230Z,1011.21
2018-07-04T06:46:45.873Z,1011.04
2018-07-04T06:47:26.452Z,1010.94
2018-07-04T06:48:07.025Z,1010.9
2018-07-04T06:48:47.639Z,1010.86
2018-07-04T06:49:28.224Z,1010.82
2018-07-04T06:50:08.798Z,1010.84
2018-07-04T06:50:49.380Z,1010.75
2018-07-04T06:51:29.965Z,1010.74
2018-07-04T06:52:10.878Z,1010.73
2018-07-04T06:52:51.202Z,1010.71
2018-07-04T06:53:31.850Z,1010.71
2018-07-04T06:54:12.709Z,1010.72
2018-07-04T06:54:53.251Z,1010.75
2018-07-04T06:55:33.810Z,1010.89
2018-07-04T06:56:14.513Z,1011.02
2018-07-04T06:56:55.082Z,1011.05
2018-07-04T06:57:35.658Z,1011.05
2018-07-04T06:58:16.628Z,1011.04
2018-07-04T06:58:57.326Z,1010.97
2018-07-04T06:59:37.946Z,1010.83
2018-07-04T07:00:21.360Z,1010.69
2018-07-04T07:00:59.643Z,1010.67
2018-07-04T07:01:40.214Z,1010.67
2018-07-04T07:02:20.834Z,1010.63
2018-07-04T07:03:01.407Z,1010.62
2018-07-04T07:03:41.989Z,1010.59
2018-07-04T07:04:22.642Z,1010.59
2018-07-04T07:05:03.212Z,1010.6
2018-07-04T07:05:43.800Z,1010.62
2018-07-04T07:06:24.370Z,1010.59
2018-07-04T07:07:04.958Z,1010.59
2018-07-04T07:07:45.522Z,1010.64
2018-07-04T07:08:26.169Z,1010.63
2018-07-04T07:09:06.705Z,1010.59
2018-07-04T07:09:47.301Z,1010.62
2018-07-04T07:10:27.855Z,1010.62
2018-07-04T07:11:08.652Z,1010.63
2018-07-04T07:11:49.232Z,1010.61
2018-07-04T07:12:29.816Z,1010.61
2018-07-04T07:13:10.411Z,1010.63
2018-07-04T07:13:50.980Z,1010.68
2018-07-04T07:14:31.666Z,1010.73
2018-07-04T07:15:12.152Z,1010.82
2018-07-04T07:15:52.729Z,1010.87
2018-07-04T07:16:33.307Z,1010.88
2018-07-04T07:17:13.887Z,1010.74
2018-07-04T07:17:54.461Z,1010.69
2018-07-04T07:18:35.048Z,1010.66
2018-07-04T07:19:15.627Z,1010.65
2018-07-04T07:19:56.233Z,1010.66
2018-07-04T07:20:36.811Z,1010.69
2018-07-04T07:21:17.463Z,1010.71
2018-07-04T07:21:57.979Z,1010.68
2018-07-04T07:22:38.538Z,1010.72
2018-07-04T07:23:19.150Z,1010.75
2018-07-04T07:23:59.728Z,1010.88
2018-07-04T07:24:40.294Z,1011.1
2018-07-04T07:25:20.897Z,1011.4
2018-07-04T07:26:01.465Z,1011.58
2018-07-04T07:26:42.035Z,1011.75
2018-07-04T07:27:22.604Z,1011.73
2018-07-04T07:28:03.167Z,1011.62
2018-07-04T07:28:43.743Z,1011.44
2018-07-04T07:29:24.324Z,1011.29
2018-07-04T07:30:04.905Z,1011.12
2018-07-04T07:30:45.463Z,1010.95
2018-07-04T07:31:26.040Z,1010.77
2018-07-04T07:32:06.679Z,1010.68
2018-07-04T07:32:47.214Z,1010.65
2018-07-04T07:33:27.806Z,1010.65
2018-07-04T07:34:08.397Z,1010.63
2018-07-04T07:34:48.952Z,1010.62
2018-07-04T07:35:29.544Z,1010.61
2018-07-04T07:36:10.143Z,1010.6
2018-07-04T07:36:50.730Z,1010.6
2018-07-04T07:37:31.303Z,1010.62
2018-07-04T07:38:11.884Z,1010.59
2018-07-04T07:38:52.457Z,1010.59
2018-07-04T07:39:33.030Z,1010.61
2018-07-04T07:40:13.612Z,1010.58
2018-07-04T07:40:54.219Z,1010.58
2018-07-04T07:41:34.835Z,1010.55
2018-07-04T07:42:15.415Z,1010.57
2018-07-04T07:42:55.959Z,1010.56
2018-07-04T07:43:36.530Z,1010.58
2018-07-04T07:44:17.082Z,1010.54
2018-07-04T07:44:57.676Z,1010.56
2018-07-04T07:45:38.271Z,1010.57
2018-07-04T07:46:18.853Z,1010.53
2018-07-04T07:46:59.431Z,1010.54
2018-07-04T07:47:39.998Z,1010.55
2018-07-04T07:48:20.586Z,1010.51
2018-07-04T07:49:01.181Z,1010.52
2018-07-04T07:49:41.768Z,1010.55
2018-07-04T07:50:22.348Z,1010.55
2018-07-04T07:51:02.913Z,1010.53
2018-07-04T07:51:43.485Z,1010.52
2018-07-04T07:52:24.094Z,1010.5
2018-07-04T07:53:04.668Z,1010.52
2018-07-04T07:53:45.242Z,1010.48
2018-07-04T07:54:25.868Z,1010.49
2018-07-04T07:55:06.394Z,1010.52
2018-07-04T07:55:46.962Z,1010.51
2018-07-04T07:56:27.549Z,1010.51
2018-07-04T07:57:08.134Z,1010.49
2018-07-04T07:57:48.709Z,1010.48
2018-07-04T07:58:29.291Z,1010.47
2018-07-04T07:59:09.866Z,1010.5
2018-07-04T07:59:50.461Z,1010.44
2018-07-04T08:00:31.048Z,1010.4
2018-07-04T08:01:11.625Z,1010.47
2018-07-04T08:01:52.244Z,1010.41
2018-07-04T08:02:32.814Z,1010.41
2018-07-04T08:03:13.380Z,1010.4
2018-07-04T08:03:53.958Z,1010.39
2018-07-04T08:04:34.504Z,1010.38
2018-07-04T08:05:15.073Z,1010.35
2018-07-04T08:05:55.719Z,1010.31
2018-07-04T08:06:36.252Z,1010.33
2018-07-04T08:07:16.829Z,1010.31
2018-07-04T08:07:57.415Z,1010.3
2018-07-04T08:08:38.241Z,1010.29
2018-07-04T08:09:18.937Z,1010.28
2018-07-04T08:09:59.517Z,1010.33
2018-07-04T08:10:40.170Z,1010.3
2018-07-04T08:11:20.778Z,1010.3
2018-07-04T08:12:01.348Z,1010.31
2018-07-04T08:12:41.945Z,1010.28
2018-07-04T08:13:22.549Z,1010.28
2018-07-04T08:14:03.130Z,1010.3
2018-07-04T08:14:43.700Z,1010.27
2018-07-04T08:15:24.269Z,1010.25
2018-07-04T08:16:04.845Z,1010.25
2018-07-04T08:16:45.439Z,1010.18
2018-07-04T08:17:25.983Z,1010.21
2018-07-04T08:18:06.550Z,1010.15
2018-07-04T08:18:47.166Z,1010.17